createdAt,value
2019-05-07T00:02:05.633Z,101497.20
2019-05-07T00:04:36.454Z,101493.14
2019-05-07T00:07:08.673Z,101492.11
2019-05-07T00:09:39.247Z,101490.34
2019-05-07T00:12:12.434Z,101486.83
2019-05-07T00:14:44.345Z,101490.23
2019-05-07T00:17:14.370Z,101490.11
2019-05-07T00:19:45.305Z,101486.59
2019-05-07T00:22:16.102Z,101491.80
2019-05-07T00:24:46.507Z,101488.77
2019-05-07T00:27:17.509Z,101481.39
2019-05-07T00:29:47.950Z,101472.44
2019-05-07T00:32:22.077Z,101475.02
2019-05-07T00:35:02.671Z,101489.02
2019-05-07T00:37:52.364Z,101492.50
2019-05-07T00:40:26.015Z,101496.09
2019-05-07T00:43:12.045Z,101505.26
2019-05-07T00:46:02.152Z,101505.71
2019-05-07T00:48:32.925Z,101507.34
2019-05-07T00:51:23.542Z,101517.41
2019-05-07T00:53:54.676Z,101518.28
2019-05-07T00:56:25.990Z,101520.02
2019-05-07T00:58:56.879Z,101519.95
2019-05-07T01:01:27.204Z,101524.02
2019-05-07T01:03:58.013Z,101524.91
2019-05-07T01:06:28.404Z,101521.32
2019-05-07T01:08:58.765Z,101515.16
2019-05-07T01:11:33.544Z,101512.97
2019-05-07T01:14:03.729Z,101512.94
2019-05-07T01:16:35.160Z,101511.17
2019-05-07T01:19:06.605Z,101501.13
2019-05-07T01:21:37.396Z,101491.47
2019-05-07T01:24:08.125Z,101482.36
2019-05-07T01:26:38.445Z,101470.67
2019-05-07T01:29:09.523Z,101468.01
2019-05-07T01:31:43.105Z,101460.69
2019-05-07T01:34:16.477Z,101456.19
2019-05-07T01:36:46.829Z,101451.64
2019-05-07T01:39:18.514Z,101455.81
2019-05-07T01:41:48.867Z,101447.87
2019-05-07T01:44:19.160Z,101435.86
2019-05-07T01:46:49.953Z,101438.47
2019-05-07T01:49:23.885Z,101432.28
2019-05-07T01:51:54.958Z,101429.53
2019-05-07T01:54:25.363Z,101435.34
2019-05-07T01:56:55.892Z,101435.17
2019-05-07T01:59:27.388Z,101431.97
2019-05-07T02:01:59.289Z,101433.05
2019-05-07T02:04:32.694Z,101432.84
2019-05-07T02:07:22.693Z,101430.13
2019-05-07T02:10:06.468Z,101435.31
2019-05-07T02:12:38.074Z,101431.42
2019-05-07T02:15:11.832Z,101435.31
2019-05-07T02:17:43.078Z,101433.27
2019-05-07T02:20:16.022Z,101427.77
2019-05-07T02:22:46.302Z,101425.41
2019-05-07T02:25:16.851Z,101421.89
2019-05-07T02:27:47.132Z,101413.52
2019-05-07T02:30:19.232Z,101415.40
2019-05-07T02:32:53.940Z,101409.30
2019-05-07T02:35:25.601Z,101407.21
2019-05-07T02:38:02.921Z,101402.76
2019-05-07T02:40:43.070Z,101395.91
2019-05-07T02:43:13.914Z,101397.86
2019-05-07T02:45:53.734Z,101398.31
2019-05-07T02:48:29.095Z,101402.57
2019-05-07T02:51:03.875Z,101404.13
2019-05-07T02:53:35.714Z,101403.53
2019-05-07T02:56:06.151Z,101400.53
2019-05-07T02:58:36.682Z,101392.66
2019-05-07T03:01:08.165Z,101396.55
2019-05-07T03:03:38.953Z,101385.69
2019-05-07T03:06:09.270Z,101385.02
2019-05-07T03:08:39.865Z,101374.98
2019-05-07T03:11:10.114Z,101376.77
2019-05-07T03:13:43.217Z,101364.44
2019-05-07T03:16:15.418Z,101359.80
2019-05-07T03:18:46.260Z,101360.89
2019-05-07T03:21:18.214Z,101354.98
2019-05-07T03:23:56.142Z,101356.47
2019-05-07T03:26:28.189Z,101356.14
2019-05-07T03:29:03.903Z,101356.66
2019-05-07T03:31:37.942Z,101358.25
2019-05-07T03:34:25.625Z,101354.88
2019-05-07T03:36:56.922Z,101348.16
2019-05-07T03:39:28.984Z,101347.03
2019-05-07T03:42:03.173Z,101339.41
2019-05-07T03:44:46.002Z,101336.92
2019-05-07T03:47:24.170Z,101338.38
2019-05-07T03:49:55.126Z,101335.32
2019-05-07T03:52:27.298Z,101328.50
2019-05-07T03:54:58.005Z,101325.59
2019-05-07T03:57:28.801Z,101324.77
2019-05-07T03:59:59.616Z,101321.64
2019-05-07T04:02:32.867Z,101312.91
2019-05-07T04:05:04.357Z,101318.16
2019-05-07T04:07:34.320Z,101322.92
2019-05-07T04:10:10.005Z,101326.52
2019-05-07T04:12:43.844Z,101318.85
2019-05-07T04:15:18.795Z,101318.63
2019-05-07T04:17:46.617Z,101307.95
2019-05-07T04:20:17.724Z,101313.25
2019-05-07T04:22:53.590Z,101303.52
2019-05-07T04:25:25.764Z,101301.63
2019-05-07T04:28:03.458Z,101302.93
2019-05-07T04:30:33.294Z,101304.20
2019-05-07T04:33:08.556Z,101294.98
2019-05-07T04:35:49.590Z,101297.22
2019-05-07T04:38:20.022Z,101298.30
2019-05-07T04:40:53.503Z,101293.94
2019-05-07T04:43:23.384Z,101294.05
2019-05-07T04:45:54.010Z,101299.94
2019-05-07T04:48:25.509Z,101298.63
2019-05-07T04:50:57.396Z,101297.96
2019-05-07T04:53:27.683Z,101294.02
2019-05-07T04:55:58.524Z,101300.11
2019-05-07T04:58:33.875Z,101302.96
2019-05-07T05:01:04.322Z,101295.28
2019-05-07T05:03:39.164Z,101292.73
2019-05-07T05:06:08.993Z,101293.09
2019-05-07T05:08:40.186Z,101296.89
2019-05-07T05:11:12.739Z,101297.00
2019-05-07T05:13:44.479Z,101304.22
2019-05-07T05:16:25.579Z,101311.01
2019-05-07T05:18:57.032Z,101308.13
2019-05-07T05:21:44.145Z,101305.03
2019-05-07T05:24:22.198Z,101301.75
2019-05-07T05:26:52.701Z,101298.06
2019-05-07T05:29:25.355Z,101295.08
2019-05-07T05:31:55.658Z,101292.77
2019-05-07T05:34:27.329Z,101296.45
2019-05-07T05:36:57.639Z,101291.72
2019-05-07T05:39:28.632Z,101295.38
2019-05-07T05:42:02.409Z,101290.91
2019-05-07T05:44:35.582Z,101283.81
2019-05-07T05:47:07.289Z,101287.95
2019-05-07T05:49:38.398Z,101286.83
2019-05-07T05:52:12.346Z,101284.47
2019-05-07T05:54:44.388Z,101289.71
2019-05-07T05:57:16.366Z,101285.77
2019-05-07T06:00:05.679Z,101286.00
2019-05-07T06:02:37.718Z,101284.42
2019-05-07T06:05:27.623Z,101288.30
2019-05-07T06:08:04.131Z,101287.66
2019-05-07T06:10:42.542Z,101282.91
2019-05-07T06:13:20.387Z,101267.31
2019-05-07T06:16:03.085Z,101277.13
2019-05-07T06:18:52.605Z,101274.77
2019-05-07T06:21:26.213Z,101271.97
2019-05-07T06:24:02.236Z,101266.41
2019-05-07T06:26:33.091Z,101261.89
2019-05-07T06:29:03.816Z,101261.72
2019-05-07T06:31:34.340Z,101260.48
2019-05-07T06:34:05.092Z,101259.61
2019-05-07T06:36:38.482Z,101249.80
2019-05-07T06:39:18.267Z,101252.95
2019-05-07T06:42:08.101Z,101250.57
2019-05-07T06:44:38.411Z,101246.48
2019-05-07T06:47:09.462Z,101239.89
2019-05-07T06:49:40.183Z,101240.13
2019-05-07T06:52:12.223Z,101241.09
2019-05-07T06:54:42.857Z,101241.88
2019-05-07T06:57:13.812Z,101235.02
2019-05-07T06:59:46.119Z,101230.73
2019-05-07T07:02:28.078Z,101230.23
2019-05-07T07:05:02.835Z,101227.41
2019-05-07T07:07:37.668Z,101219.05
2019-05-07T07:10:12.010Z,101221.93
2019-05-07T07:12:42.618Z,101224.86
2019-05-07T07:15:13.320Z,101225.89
2019-05-07T07:17:44.720Z,101215.45
2019-05-07T07:20:16.579Z,101215.40
2019-05-07T07:22:48.579Z,101210.63
2019-05-07T07:25:18.932Z,101212.89
2019-05-07T07:27:49.228Z,101213.30
2019-05-07T07:30:37.470Z,101209.81
2019-05-07T07:33:12.020Z,101213.80
2019-05-07T07:35:42.817Z,101200.80
2019-05-07T07:38:33.785Z,101206.83
2019-05-07T07:41:12.764Z,101205.89
2019-05-07T07:43:43.651Z,101200.38
2019-05-07T07:46:16.524Z,101197.52
2019-05-07T07:48:46.645Z,101196.80
2019-05-07T07:51:18.618Z,101196.48
2019-05-07T07:53:49.281Z,101186.48
2019-05-07T07:56:49.074Z,101188.02
2019-05-07T07:59:29.555Z,101182.91
2019-05-07T08:02:07.966Z,101174.60
2019-05-07T08:04:39.267Z,101192.55
2019-05-07T08:07:12.216Z,101182.91
2019-05-07T08:09:42.962Z,101186.85
2019-05-07T08:12:15.779Z,101183.38
2019-05-07T08:14:46.139Z,101177.59
2019-05-07T08:17:16.469Z,101175.63
2019-05-07T08:19:46.822Z,101169.43
2019-05-07T08:22:17.589Z,101170.78
2019-05-07T08:24:48.038Z,101170.95
2019-05-07T08:27:18.394Z,101167.04
2019-05-07T08:29:48.743Z,101162.10
2019-05-07T08:32:27.971Z,101158.13
2019-05-07T08:35:18.015Z,101156.42
2019-05-07T08:37:48.948Z,101152.56
2019-05-07T08:40:22.078Z,101151.80
2019-05-07T08:42:54.154Z,101160.78
2019-05-07T08:45:43.188Z,101160.91
2019-05-07T08:48:15.896Z,101152.40
2019-05-07T08:50:46.435Z,101145.37
2019-05-07T08:53:17.110Z,101145.14
2019-05-07T08:55:48.333Z,101141.59
2019-05-07T08:58:19.887Z,101140.60
2019-05-07T09:00:52.302Z,101136.67
2019-05-07T09:03:42.958Z,101136.16
2019-05-07T09:06:14.399Z,101132.77
2019-05-07T09:08:44.727Z,101133.08
2019-05-07T09:11:17.506Z,101126.27
2019-05-07T09:13:47.896Z,101121.38
2019-05-07T09:16:18.424Z,101115.80
2019-05-07T09:18:50.215Z,101104.27
2019-05-07T09:21:22.712Z,101114.69
2019-05-07T09:23:54.466Z,101103.64
2019-05-07T09:26:32.935Z,101097.30
2019-05-07T09:29:05.945Z,101097.41
2019-05-07T09:31:38.220Z,101092.56
2019-05-07T09:34:08.576Z,101093.25
2019-05-07T09:36:58.848Z,101093.23
2019-05-07T09:39:32.415Z,101080.70
2019-05-07T09:42:02.852Z,101081.80
2019-05-07T09:44:33.204Z,101073.33
2019-05-07T09:47:03.962Z,101074.30
2019-05-07T09:49:34.352Z,101073.83
2019-05-07T09:52:06.077Z,101075.30
2019-05-07T09:54:36.982Z,101074.78
2019-05-07T09:57:22.751Z,101071.42
2019-05-07T09:59:39.821Z,101078.16
2019-05-07T10:02:12.303Z,101067.31
2019-05-07T10:04:43.650Z,101063.17
2019-05-07T10:07:14.063Z,101060.48
2019-05-07T10:09:44.382Z,101062.92
2019-05-07T10:12:35.493Z,101058.52
2019-05-07T10:15:07.312Z,101062.50
2019-05-07T10:17:39.633Z,101053.84
2019-05-07T10:20:19.241Z,101060.59
2019-05-07T10:22:43.790Z,101055.70
2019-05-07T10:25:14.479Z,101046.14
2019-05-07T10:27:45.418Z,101048.21
2019-05-07T10:30:16.449Z,101041.02
2019-05-07T10:32:52.495Z,101050.50
2019-05-07T10:35:22.966Z,101039.64
2019-05-07T10:37:55.310Z,101047.05
2019-05-07T10:40:26.475Z,101033.82
2019-05-07T10:43:01.490Z,101027.20
2019-05-07T10:45:42.170Z,101019.34
2019-05-07T10:48:14.851Z,101029.48
2019-05-07T10:50:46.794Z,101027.41
2019-05-07T10:53:17.075Z,101009.84
2019-05-07T10:55:47.424Z,101010.84
2019-05-07T10:58:17.864Z,101017.46
2019-05-07T11:00:48.678Z,101005.97
2019-05-07T11:03:21.905Z,101002.54
2019-05-07T11:05:52.344Z,101005.09
2019-05-07T11:08:25.567Z,100998.96
2019-05-07T11:10:55.675Z,100998.48
2019-05-07T11:13:27.424Z,100990.02
2019-05-07T11:15:59.844Z,100994.08
2019-05-07T11:18:51.614Z,100990.27
2019-05-07T11:21:33.459Z,100990.53
2019-05-07T11:24:03.699Z,100988.38
2019-05-07T11:26:36.034Z,100971.67
2019-05-07T11:29:06.308Z,100971.89
2019-05-07T11:31:36.905Z,100960.18
2019-05-07T11:34:08.996Z,100962.38
2019-05-07T11:36:40.258Z,100939.01
2019-05-07T11:39:12.237Z,100956.14
2019-05-07T11:41:47.923Z,100947.22
2019-05-07T11:44:20.002Z,100944.84
2019-05-07T11:47:02.981Z,100938.50
2019-05-07T11:49:52.469Z,100938.39
2019-05-07T11:52:24.444Z,100936.31
2019-05-07T11:54:55.122Z,100930.64
2019-05-07T11:57:25.683Z,100927.66
2019-05-07T11:59:56.049Z,100911.53
2019-05-07T12:02:26.759Z,100918.41
2019-05-07T12:04:57.107Z,100911.56
2019-05-07T12:07:28.386Z,100901.27
2019-05-07T12:10:02.836Z,100899.59
2019-05-07T12:12:32.558Z,100894.37
2019-05-07T12:15:07.079Z,100888.97
2019-05-07T12:17:39.524Z,100882.66
2019-05-07T12:20:12.384Z,100877.87
2019-05-07T12:22:48.277Z,100871.30
2019-05-07T12:25:21.321Z,100864.70
2019-05-07T12:27:54.251Z,100867.55
2019-05-07T12:30:45.634Z,100864.55
2019-05-07T12:33:17.547Z,100860.24
2019-05-07T12:35:48.209Z,100870.53
2019-05-07T12:38:21.790Z,100872.75
2019-05-07T12:40:52.427Z,100857.94
2019-05-07T12:43:24.315Z,100847.86
2019-05-07T12:45:55.804Z,100842.36
2019-05-07T12:48:26.555Z,100839.34
2019-05-07T12:50:57.630Z,100835.19
2019-05-07T12:53:31.874Z,100832.67
2019-05-07T12:56:03.846Z,100825.34
2019-05-07T12:58:34.145Z,100814.23
2019-05-07T13:01:07.411Z,100814.47
2019-05-07T13:03:42.782Z,100810.36
2019-05-07T13:06:13.372Z,100797.73
2019-05-07T13:08:44.027Z,100802.88
2019-05-07T13:11:14.407Z,100802.18
2019-05-07T13:13:44.772Z,100806.69
2019-05-07T13:16:15.745Z,100798.51
2019-05-07T13:18:46.679Z,100794.91
2019-05-07T13:21:17.002Z,100786.06
2019-05-07T13:23:47.311Z,100781.92
2019-05-07T13:26:17.626Z,100784.77
2019-05-07T13:28:48.949Z,100784.38
2019-05-07T13:31:22.739Z,100770.66
2019-05-07T13:33:56.403Z,100763.34
2019-05-07T13:36:27.744Z,100762.57
2019-05-07T13:39:07.385Z,100769.20
2019-05-07T13:41:43.972Z,100765.27
2019-05-07T13:44:25.354Z,100759.47
2019-05-07T13:47:02.725Z,100760.69
2019-05-07T13:49:33.874Z,100753.22
2019-05-07T13:52:05.932Z,100757.45
2019-05-07T13:54:38.108Z,100754.25
2019-05-07T13:57:08.934Z,100750.90
2019-05-07T13:59:42.427Z,100746.02
2019-05-07T14:02:15.648Z,100748.78
2019-05-07T14:04:46.127Z,100740.06
2019-05-07T14:07:16.673Z,100734.80
2019-05-07T14:09:48.125Z,100750.05
2019-05-07T14:12:20.083Z,100739.75
2019-05-07T14:14:52.806Z,100738.81
2019-05-07T14:17:23.912Z,100737.78
2019-05-07T14:19:54.402Z,100728.16
2019-05-07T14:22:25.842Z,100726.16
2019-05-07T14:24:57.646Z,100730.08
2019-05-07T14:27:28.505Z,100725.17
2019-05-07T14:29:59.683Z,100720.42
2019-05-07T14:32:31.603Z,100716.91
2019-05-07T14:35:05.026Z,100709.26
2019-05-07T14:37:37.236Z,100702.56
2019-05-07T14:40:09.445Z,100695.16
2019-05-07T14:42:41.935Z,100692.06
2019-05-07T14:45:14.153Z,100684.83
2019-05-07T14:47:45.855Z,100688.19
2019-05-07T14:50:17.145Z,100677.58
2019-05-07T14:52:47.574Z,100676.42
2019-05-07T14:55:18.507Z,100665.80
2019-05-07T14:57:49.858Z,100656.67
2019-05-07T15:00:22.578Z,100657.98
2019-05-07T15:02:53.902Z,100658.69
2019-05-07T15:05:27.238Z,100653.20
2019-05-07T15:08:08.274Z,100641.09
2019-05-07T15:10:32.587Z,100656.05
2019-05-07T15:13:03.255Z,100636.67
2019-05-07T15:15:33.647Z,100631.66
2019-05-07T15:18:07.149Z,100623.49
2019-05-07T15:20:37.596Z,100623.66
2019-05-07T15:23:27.332Z,100622.58
2019-05-07T15:25:58.597Z,100619.34
2019-05-07T15:28:34.687Z,100609.16
2019-05-07T15:31:09.635Z,100598.82
2019-05-07T15:33:41.837Z,100598.55
2019-05-07T15:36:12.518Z,100584.03
2019-05-07T15:38:43.610Z,100587.50
2019-05-07T15:41:15.913Z,100583.66
2019-05-07T15:43:46.711Z,100574.97
2019-05-07T15:46:17.023Z,100582.23
2019-05-07T15:48:48.433Z,100576.99
2019-05-07T15:51:19.049Z,100573.45
2019-05-07T15:53:52.334Z,100565.50
2019-05-07T15:56:22.950Z,100571.82
2019-05-07T15:58:53.828Z,100567.86
2019-05-07T16:01:24.144Z,100557.69
2019-05-07T16:03:55.208Z,100557.06
2019-05-07T16:06:25.896Z,100555.61
2019-05-07T16:08:58.696Z,100544.19
2019-05-07T16:11:32.281Z,100546.09
2019-05-07T16:14:06.815Z,100545.86
2019-05-07T16:16:47.479Z,100550.09
2019-05-07T16:19:26.707Z,100540.92
2019-05-07T16:21:59.594Z,100556.32
2019-05-07T16:24:31.920Z,100543.97
2019-05-07T16:27:05.119Z,100534.77
2019-05-07T16:29:35.886Z,100544.45
2019-05-07T16:32:07.198Z,100542.66
2019-05-07T16:34:37.961Z,100548.08
2019-05-07T16:37:08.385Z,100551.02
2019-05-07T16:39:38.727Z,100542.99
2019-05-07T16:42:10.570Z,100540.72
2019-05-07T16:44:41.756Z,100543.61
2019-05-07T16:47:13.777Z,100548.63
2019-05-07T16:49:44.708Z,100547.39
2019-05-07T16:52:17.960Z,100540.46
2019-05-07T16:54:48.256Z,100542.02
2019-05-07T16:57:36.368Z,100526.58
2019-05-07T17:00:09.754Z,100530.26
2019-05-07T17:02:45.817Z,100532.84
2019-05-07T17:05:16.650Z,100543.75
2019-05-07T17:07:57.756Z,100548.50
2019-05-07T17:10:27.995Z,100553.64
2019-05-07T17:12:58.742Z,100542.26
2019-05-07T17:15:30.091Z,100529.58
2019-05-07T17:18:02.509Z,100528.16
2019-05-07T17:20:33.062Z,100527.31
2019-05-07T17:23:03.334Z,100521.34
2019-05-07T17:25:39.607Z,100519.64
2019-05-07T17:28:12.623Z,100506.52
2019-05-07T17:30:43.219Z,100500.91
2019-05-07T17:33:13.529Z,100496.59
2019-05-07T17:35:46.269Z,100487.79
2019-05-07T17:38:17.031Z,100477.95
2019-05-07T17:40:47.809Z,100481.59
2019-05-07T17:43:18.576Z,100480.67
2019-05-07T17:45:49.663Z,100474.21
2019-05-07T17:48:20.256Z,100467.33
2019-05-07T17:50:59.038Z,100459.02
2019-05-07T17:53:29.354Z,100446.13
2019-05-07T17:56:02.113Z,100440.61
2019-05-07T17:58:33.999Z,100439.42
2019-05-07T18:01:05.318Z,100435.38
2019-05-07T18:03:38.276Z,100430.77
2019-05-07T18:06:09.860Z,100429.97
2019-05-07T18:08:40.268Z,100422.73
2019-05-07T18:11:20.162Z,100427.31
2019-05-07T18:13:42.921Z,100413.55
2019-05-07T18:16:24.567Z,100399.66
2019-05-07T18:18:54.797Z,100409.84
2019-05-07T18:21:25.638Z,100408.09
2019-05-07T18:23:56.060Z,100404.72
2019-05-07T18:26:30.710Z,100402.59
2019-05-07T18:28:59.247Z,100402.08
2019-05-07T18:31:34.546Z,100396.09
2019-05-07T18:34:04.921Z,100388.72
2019-05-07T18:36:35.650Z,100389.23
2019-05-07T18:39:07.988Z,100378.63
2019-05-07T18:41:38.454Z,100364.24
2019-05-07T18:44:12.928Z,100362.61
2019-05-07T18:46:41.590Z,100357.93
2019-05-07T18:49:12.925Z,100362.27
2019-05-07T18:51:46.080Z,100363.45
2019-05-07T18:54:27.737Z,100357.33
2019-05-07T18:56:48.974Z,100352.08
2019-05-07T18:59:22.166Z,100347.34
2019-05-07T19:01:55.885Z,100343.45
2019-05-07T19:04:26.357Z,100336.44
2019-05-07T19:06:57.148Z,100338.74
2019-05-07T19:09:28.194Z,100347.04
2019-05-07T19:11:58.600Z,100341.24
2019-05-07T19:14:28.934Z,100350.72
2019-05-07T19:16:59.759Z,100351.20
2019-05-07T19:19:32.754Z,100342.98
2019-05-07T19:22:04.204Z,100339.77
2019-05-07T19:24:44.656Z,100338.24
2019-05-07T19:27:07.022Z,100348.03
2019-05-07T19:29:37.417Z,100344.19
2019-05-07T19:32:12.114Z,100346.44
2019-05-07T19:34:42.417Z,100348.70
2019-05-07T19:37:14.105Z,100344.73
2019-05-07T19:39:45.108Z,100351.77
2019-05-07T19:42:17.007Z,100340.43
2019-05-07T19:44:47.661Z,100329.09
2019-05-07T19:47:18.575Z,100325.56
2019-05-07T19:49:48.881Z,100321.16
2019-05-07T19:52:23.256Z,100345.25
2019-05-07T19:55:01.286Z,100354.92
2019-05-07T19:57:27.447Z,100351.00
2019-05-07T19:59:58.580Z,100344.39
2019-05-07T20:02:33.729Z,100333.80
2019-05-07T20:05:05.126Z,100330.92
2019-05-07T20:07:35.674Z,100339.66
2019-05-07T20:10:09.206Z,100340.38
2019-05-07T20:12:42.774Z,100349.58
2019-05-07T20:15:13.929Z,100340.41
2019-05-07T20:17:44.869Z,100301.16
2019-05-07T20:20:17.562Z,100287.70
2019-05-07T20:22:48.078Z,100275.02
2019-05-07T20:25:19.265Z,100295.68
2019-05-07T20:27:52.589Z,100297.01
2019-05-07T20:30:22.973Z,100294.52
2019-05-07T20:32:53.565Z,100286.19
2019-05-07T20:35:23.881Z,100284.48
2019-05-07T20:37:54.763Z,100286.31
2019-05-07T20:40:25.149Z,100269.66
2019-05-07T20:42:56.451Z,100271.04
2019-05-07T20:45:26.769Z,100261.84
2019-05-07T20:47:57.655Z,100258.75
2019-05-07T20:50:27.935Z,100251.75
2019-05-07T20:53:01.892Z,100260.02
2019-05-07T20:55:36.256Z,100254.41
2019-05-07T20:58:07.848Z,100239.19
2019-05-07T21:00:39.640Z,100233.55
2019-05-07T21:03:13.205Z,100229.20
2019-05-07T21:05:43.943Z,100228.66
2019-05-07T21:08:15.448Z,100209.45
2019-05-07T21:10:46.706Z,100211.19
2019-05-07T21:13:27.448Z,100205.22
2019-05-07T21:15:49.070Z,100196.17
2019-05-07T21:18:19.650Z,100193.01
2019-05-07T21:20:49.893Z,100192.15
2019-05-07T21:23:22.806Z,100190.38
2019-05-07T21:25:53.232Z,100186.09
2019-05-07T21:28:24.238Z,100176.92
2019-05-07T21:30:55.016Z,100176.00
2019-05-07T21:33:25.887Z,100170.33
2019-05-07T21:35:56.409Z,100164.25
2019-05-07T21:38:26.841Z,100161.61
2019-05-07T21:40:58.392Z,100161.20
2019-05-07T21:43:29.080Z,100154.67
2019-05-07T21:46:02.274Z,100155.94
2019-05-07T21:48:32.876Z,100151.70
2019-05-07T21:51:03.879Z,100151.26
2019-05-07T21:53:37.047Z,100140.30
2019-05-07T21:56:12.216Z,100139.02
2019-05-07T21:58:46.722Z,100137.41
2019-05-07T22:01:35.907Z,100131.30
2019-05-07T22:04:07.814Z,100126.58
2019-05-07T22:06:38.581Z,100111.71
2019-05-07T22:09:10.103Z,100112.94
2019-05-07T22:11:42.614Z,100114.80
2019-05-07T22:14:13.311Z,100106.42
2019-05-07T22:16:43.991Z,100107.16
2019-05-07T22:19:14.653Z,100107.30
2019-05-07T22:21:45.285Z,100105.19
2019-05-07T22:24:16.370Z,100103.44
2019-05-07T22:26:47.172Z,100102.20
2019-05-07T22:29:17.487Z,100089.03
2019-05-07T22:31:49.493Z,100084.98
2019-05-07T22:34:30.667Z,100082.98
2019-05-07T22:37:04.728Z,100081.67
2019-05-07T22:39:49.605Z,100087.19
2019-05-07T22:42:24.773Z,100075.55
2019-05-07T22:44:55.872Z,100078.60
2019-05-07T22:47:26.554Z,100075.92
2019-05-07T22:49:57.687Z,100078.48
2019-05-07T22:52:28.029Z,100071.17
2019-05-07T22:54:59.667Z,100067.16
2019-05-07T22:57:34.317Z,100061.63
2019-05-07T23:00:12.252Z,100057.22
2019-05-07T23:02:44.515Z,100056.38
2019-05-07T23:05:15.116Z,100045.06
2019-05-07T23:07:45.449Z,100050.28
2019-05-07T23:10:16.558Z,100047.61
2019-05-07T23:12:47.595Z,100047.56
2019-05-07T23:15:19.181Z,100044.07
2019-05-07T23:17:49.462Z,100040.22
2019-05-07T23:20:24.140Z,100033.10
2019-05-07T23:22:53.492Z,100017.75
2019-05-07T23:25:26.473Z,100011.62
2019-05-07T23:27:56.732Z,100008.69
2019-05-07T23:30:33.121Z,99998.17
2019-05-07T23:33:04.469Z,99989.58
2019-05-07T23:35:35.650Z,99988.75
2019-05-07T23:38:05.894Z,99988.97
2019-05-07T23:40:39.314Z,99984.66
2019-05-07T23:43:14.417Z,99987.72
2019-05-07T23:45:44.776Z,99999.94
2019-05-07T23:48:16.436Z,99984.64
2019-05-07T23:50:47.126Z,99994.22
2019-05-07T23:53:18.514Z,99981.66
2019-05-07T23:55:51.974Z,99978.02
2019-05-07T23:58:22.988Z,99969.75
